Time;durP1;ratioP1;P1;durP2;ratioP2;P2;SDS_P1;SDS_P2;PMS_P1;PMS_P2;Temp;Humidity;BMP_temperature;BMP_pressure;BME280_temperature;BME280_humidity;BME280_pressure;Samples;Min_cycle;Max_cycle;Signal;HPM_P1;HPM_P2
2022/12/29 00:00:34;;;;;;;11.35;1.48;;;;;;;;;;5011279;28;20013;-89
2022/12/29 00:03:03;;;;;;;11.52;1.50;;;;;;;;;;4989032;28;20018;-89
2022/12/29 00:05:28;;;;;;;9.13;1.60;;;;;;;;;;4982322;28;20061;-89
2022/12/29 00:07:53;;;;;;;12.88;1.85;;;;;;;;;;4988485;28;20050;-88
2022/12/29 00:10:19;;;;;;;11.73;1.83;;;;;;;;;;4996209;28;20433;-88
2022/12/29 00:15:38;;;;;;;10.25;1.88;;;;;;;;;;5004645;28;20049;-90
2022/12/29 00:18:03;;;;;;;10.82;1.75;;;;;;;;;;4985614;28;20108;-90
2022/12/29 00:37:02;;;;;;;11.95;1.70;;;;;;;;;;4978109;28;20184;-94
2022/12/29 00:44:04;;;;;;;11.13;1.60;;;;;;;;;;4985129;28;20084;-94
2022/12/29 00:45:05;;;;;;;7.90;1.25;;;;;;;;;;4980709;28;20142;-92
2022/12/29 00:47:30;;;;;;;8.40;1.42;;;;;;;;;;4988987;28;20522;-93
2022/12/29 00:49:56;;;;;;;12.35;1.75;;;;;;;;;;4973932;28;20579;-93
2022/12/29 00:52:24;;;;;;;7.72;1.42;;;;;;;;;;4991208;28;20037;-92
2022/12/29 00:54:49;;;;;;;10.45;1.60;;;;;;;;;;4971258;28;20029;-93
2022/12/29 00:57:15;;;;;;;8.23;1.25;;;;;;;;;;4970018;28;20030;-88
2022/12/29 00:59:41;;;;;;;13.45;1.67;;;;;;;;;;4976096;28;21058;-89
2022/12/29 01:02:06;;;;;;;8.07;1.50;;;;;;;;;;4965103;28;20501;-92
2022/12/29 01:04:32;;;;;;;13.45;1.75;;;;;;;;;;4966090;28;20037;-92
2022/12/29 01:06:57;;;;;;;7.55;1.05;;;;;;;;;;4968162;28;20174;-93
2022/12/29 01:12:07;;;;;;;14.02;1.70;;;;;;;;;;4981331;28;20054;-94
2022/12/29 01:14:33;;;;;;;12.43;1.60;;;;;;;;;;4980787;28;20011;-94
2022/12/29 01:16:58;;;;;;;13.63;2.28;;;;;;;;;;4988124;28;20028;-94
2022/12/29 01:19:24;;;;;;;16.30;1.85;;;;;;;;;;4984439;28;20110;-93
2022/12/29 01:21:49;;;;;;;11.70;1.45;;;;;;;;;;4967544;28;20037;-94
2022/12/29 01:24:19;;;;;;;15.98;1.70;;;;;;;;;;4966346;28;20780;-93
2022/12/29 01:26:44;;;;;;;10.52;1.70;;;;;;;;;;4974038;28;20034;-94
2022/12/29 01:29:11;;;;;;;12.20;1.60;;;;;;;;;;4967872;28;20035;-94
2022/12/29 01:31:36;;;;;;;10.50;1.90;;;;;;;;;;4969293;28;20022;-94
2022/12/29 01:34:02;;;;;;;12.50;1.90;;;;;;;;;;4984288;28;20038;-94
2022/12/29 01:36:27;;;;;;;9.93;1.83;;;;;;;;;;4974256;28;20057;-92
2022/12/29 01:38:52;;;;;;;9.07;1.48;;;;;;;;;;4982874;28;20733;-93
2022/12/29 01:41:18;;;;;;;7.45;1.23;;;;;;;;;;4969880;28;20101;-93
2022/12/29 01:43:50;;;;;;;12.05;1.70;;;;;;;;;;4981709;28;20124;-93
2022/12/29 01:46:34;;;;;;;8.68;1.10;;;;;;;;;;4967787;28;20073;-93
2022/12/29 01:49:09;;;;;;;8.63;1.55;;;;;;;;;;4970329;28;20057;-94
2022/12/29 01:51:40;;;;;;;10.73;1.60;;;;;;;;;;4966866;28;20042;-93
2022/12/29 01:54:09;;;;;;;10.65;1.50;;;;;;;;;;4972927;28;20101;-94
2022/12/29 01:56:35;;;;;;;9.65;1.33;;;;;;;;;;4972263;28;20037;-95
2022/12/29 01:59:02;;;;;;;8.65;1.20;;;;;;;;;;4970359;28;20287;-93
2022/12/29 02:01:27;;;;;;;10.15;1.45;;;;;;;;;;4975880;28;20029;-95
2022/12/29 02:03:53;;;;;;;10.65;1.40;;;;;;;;;;4991536;28;20026;-94
2022/12/29 02:06:29;;;;;;;13.00;1.58;;;;;;;;;;4985434;28;20034;-94
2022/12/29 02:08:56;;;;;;;12.23;1.70;;;;;;;;;;4971904;28;20034;-94
2022/12/29 02:11:24;;;;;;;11.68;1.63;;;;;;;;;;4960359;28;20054;-92
2022/12/29 02:13:49;;;;;;;13.45;1.75;;;;;;;;;;4963996;28;20195;-92
2022/12/29 02:16:21;;;;;;;10.60;1.55;;;;;;;;;;4969024;28;20030;-92
2022/12/29 02:19:05;;;;;;;2.70;0.40;;;;;;;;;;4990939;28;20087;-91
2022/12/29 02:21:40;;;;;;;3.80;0.52;;;;;;;;;;4980405;28;20035;-91
2022/12/29 02:24:08;;;;;;;0.63;0.15;;;;;;;;;;4985005;28;20092;-91
2022/12/29 02:26:53;;;;;;;0.50;0.20;;;;;;;;;;4981588;28;20034;-90
2022/12/29 02:29:18;;;;;;;0.80;0.20;;;;;;;;;;4987328;28;20026;-92
2022/12/29 02:31:59;;;;;;;2.55;0.43;;;;;;;;;;4985112;28;20112;-91
2022/12/29 02:34:36;;;;;;;3.53;0.40;;;;;;;;;;4991836;28;20540;-91
2022/12/29 02:37:17;;;;;;;1.05;0.28;;;;;;;;;;4982814;28;20084;-91
2022/12/29 02:39:50;;;;;;;1.58;0.40;;;;;;;;;;4980481;28;20128;-91
2022/12/29 02:42:18;;;;;;;;;;;;;;;;;;4982685;28;20638;-91
2022/12/29 02:45:04;;;;;;;3.25;0.80;;;;;;;;;;4980957;28;19917;-91
2022/12/29 02:47:51;;;;;;;5.82;1.60;;;;;;;;;;4977565;28;20030;-92
2022/12/29 02:50:25;;;;;;;3.97;1.00;;;;;;;;;;4994046;28;20029;-90
2022/12/29 02:53:01;;;;;;;3.30;0.77;;;;;;;;;;4990508;28;20061;-90
2022/12/29 02:55:26;;;;;;;2.50;0.57;;;;;;;;;;4982209;28;20026;-90
2022/12/29 02:58:11;;;;;;;3.10;0.65;;;;;;;;;;4982819;28;20076;-90
2022/12/29 03:03:15;;;;;;;4.32;1.10;;;;;;;;;;5232334;23;20098;-91
2022/12/29 03:05:40;;;;;;;3.20;0.70;;;;;;;;;;5012581;28;20048;-90
2022/12/29 03:08:17;;;;;;;4.72;1.15;;;;;;;;;;5002261;28;20392;-91
2022/12/29 03:10:46;;;;;;;5.43;1.48;;;;;;;;;;5002495;28;20375;-92
2022/12/29 03:16:17;;;;;;;7.43;1.30;;;;;;;;;;5014321;28;20078;-91
2022/12/29 03:19:01;;;;;;;6.55;1.30;;;;;;;;;;4996466;28;20080;-92
2022/12/29 03:24:22;;;;;;;8.02;1.70;;;;;;;;;;5021437;28;20052;-92
2022/12/29 03:26:48;;;;;;;7.43;2.20;;;;;;;;;;5002289;28;20072;-92
2022/12/29 03:29:13;;;;;;;13.05;2.50;;;;;;;;;;5018449;28;20771;-92
2022/12/29 03:31:40;;;;;;;7.38;2.20;;;;;;;;;;5021384;28;20358;-92
2022/12/29 03:34:06;;;;;;;9.10;1.92;;;;;;;;;;5021208;28;20048;-92
2022/12/29 03:36:35;;;;;;;6.20;1.80;;;;;;;;;;5016865;28;20096;-92
2022/12/29 03:39:08;;;;;;;7.18;1.63;;;;;;;;;;5018729;28;20032;-92
2022/12/29 03:41:34;;;;;;;9.00;1.42;;;;;;;;;;5017826;28;20087;-93
2022/12/29 03:43:59;;;;;;;8.82;1.40;;;;;;;;;;5005441;28;20029;-95
2022/12/29 03:46:24;;;;;;;10.25;1.55;;;;;;;;;;5021032;28;20357;-94
2022/12/29 03:48:50;;;;;;;8.50;1.20;;;;;;;;;;5002472;28;20022;-93
2022/12/29 03:51:15;;;;;;;5.83;1.33;;;;;;;;;;4999603;28;20021;-93
2022/12/29 03:53:40;;;;;;;6.72;1.38;;;;;;;;;;5000147;28;20277;-94
2022/12/29 03:56:06;;;;;;;4.35;0.88;;;;;;;;;;5016717;28;20025;-94
2022/12/29 03:58:31;;;;;;;4.85;1.15;;;;;;;;;;4998073;28;20045;-93
2022/12/29 04:00:57;;;;;;;3.85;0.95;;;;;;;;;;5034480;28;20032;-92
2022/12/29 04:03:22;;;;;;;8.18;1.40;;;;;;;;;;5037926;28;20061;-92
2022/12/29 04:05:47;;;;;;;7.10;1.10;;;;;;;;;;5045971;28;20041;-92
2022/12/29 04:08:12;;;;;;;7.18;1.15;;;;;;;;;;5003363;28;20025;-93
2022/12/29 04:10:38;;;;;;;5.88;1.20;;;;;;;;;;5019027;28;20096;-93
2022/12/29 04:13:03;;;;;;;5.25;1.08;;;;;;;;;;5026433;28;20029;-92
2022/12/29 04:15:28;;;;;;;6.22;1.25;;;;;;;;;;5018456;28;20057;-94
2022/12/29 04:17:54;;;;;;;4.22;1.20;;;;;;;;;;5005291;28;20025;-94
2022/12/29 04:23:04;;;;;;;6.45;1.42;;;;;;;;;;5036113;28;20021;-94
2022/12/29 04:25:33;;;;;;;9.43;1.33;;;;;;;;;;5039946;28;20331;-94
2022/12/29 04:27:58;;;;;;;4.68;1.15;;;;;;;;;;5014631;28;20128;-93
2022/12/29 04:30:23;;;;;;;7.68;1.85;;;;;;;;;;5023218;28;20120;-93
2022/12/29 04:32:49;;;;;;;6.25;1.45;;;;;;;;;;5030893;28;20073;-93
2022/12/29 04:35:14;;;;;;;6.03;1.70;;;;;;;;;;5030995;28;20037;-93
2022/12/29 04:37:40;;;;;;;7.45;2.22;;;;;;;;;;5008412;28;20026;-94
2022/12/29 04:40:05;;;;;;;6.78;1.90;;;;;;;;;;5006347;28;20464;-93
2022/12/29 04:42:31;;;;;;;5.78;1.70;;;;;;;;;;4998890;28;20030;-93
2022/12/29 04:44:56;;;;;;;6.15;1.80;;;;;;;;;;5011633;28;20369;-94
2022/12/29 04:47:21;;;;;;;6.28;1.92;;;;;;;;;;5034859;28;20033;-93
2022/12/29 04:49:46;;;;;;;8.77;2.00;;;;;;;;;;5011888;28;20076;-94
2022/12/29 04:52:12;;;;;;;6.85;2.33;;;;;;;;;;5007747;28;20029;-93
2022/12/29 04:54:37;;;;;;;8.27;2.30;;;;;;;;;;5026938;28;20062;-94
2022/12/29 04:57:02;;;;;;;6.57;2.17;;;;;;;;;;5008656;28;20017;-94
2022/12/29 04:59:28;;;;;;;6.88;2.50;;;;;;;;;;4999402;28;20460;-93
2022/12/29 05:01:53;;;;;;;8.68;2.55;;;;;;;;;;5003153;28;20025;-93
2022/12/29 05:04:19;;;;;;;7.53;2.40;;;;;;;;;;4997362;28;20046;-93
2022/12/29 05:06:44;;;;;;;8.88;2.80;;;;;;;;;;5021866;28;20459;-94
2022/12/29 05:09:09;;;;;;;11.57;2.17;;;;;;;;;;5005999;28;20037;-94
2022/12/29 05:11:35;;;;;;;11.32;2.25;;;;;;;;;;5018372;28;20033;-93
2022/12/29 05:14:00;;;;;;;7.18;2.42;;;;;;;;;;5014905;28;20028;-93
2022/12/29 05:16:37;;;;;;;9.68;2.38;;;;;;;;;;5018818;28;20028;-93
2022/12/29 05:19:02;;;;;;;10.50;2.15;;;;;;;;;;5002215;28;20136;-94
2022/12/29 05:21:27;;;;;;;8.73;1.80;;;;;;;;;;5000578;28;20132;-94
2022/12/29 05:23:53;;;;;;;5.80;1.58;;;;;;;;;;4998148;28;20040;-93
2022/12/29 05:26:19;;;;;;;7.50;1.50;;;;;;;;;;4988258;28;20534;-94
2022/12/29 05:28:44;;;;;;;6.82;1.70;;;;;;;;;;5007577;28;20082;-94
2022/12/29 05:31:11;;;;;;;10.07;1.73;;;;;;;;;;5014516;28;20018;-94
2022/12/29 05:33:36;;;;;;;6.90;1.40;;;;;;;;;;5002204;28;20014;-94
2022/12/29 05:36:05;;;;;;;9.57;1.55;;;;;;;;;;5005691;28;20397;-93
2022/12/29 05:38:30;;;;;;;5.03;1.30;;;;;;;;;;4996366;28;20030;-94
2022/12/29 05:40:56;;;;;;;7.72;1.50;;;;;;;;;;5000369;28;20029;-93
2022/12/29 05:43:21;;;;;;;6.13;1.13;;;;;;;;;;5016744;28;20039;-94
2022/12/29 05:45:48;;;;;;;5.45;1.20;;;;;;;;;;5007953;28;20021;-93
2022/12/29 05:48:13;;;;;;;7.30;1.23;;;;;;;;;;5019655;28;20390;-94
2022/12/29 05:50:38;;;;;;;7.78;1.17;;;;;;;;;;4993637;28;20476;-92
2022/12/29 05:53:04;;;;;;;6.18;1.25;;;;;;;;;;5000167;28;20033;-93
2022/12/29 05:55:29;;;;;;;3.55;1.00;;;;;;;;;;5020991;28;20095;-94
2022/12/29 05:57:54;;;;;;;3.73;0.83;;;;;;;;;;5021872;28;20037;-93
2022/12/29 06:00:20;;;;;;;7.43;1.20;;;;;;;;;;5025616;28;20633;-93
2022/12/29 06:02:45;;;;;;;4.13;0.77;;;;;;;;;;5020788;28;20058;-94
2022/12/29 06:05:10;;;;;;;5.20;1.23;;;;;;;;;;5026272;28;20085;-93
2022/12/29 06:07:36;;;;;;;3.80;0.82;;;;;;;;;;5018521;28;20029;-93
2022/12/29 06:10:01;;;;;;;4.68;1.15;;;;;;;;;;5003473;28;20468;-93
2022/12/29 06:12:26;;;;;;;5.00;0.82;;;;;;;;;;5002133;28;20026;-93
2022/12/29 06:14:51;;;;;;;4.72;0.90;;;;;;;;;;5020363;28;20026;-94
2022/12/29 06:17:17;;;;;;;5.18;0.90;;;;;;;;;;4994159;28;20063;-93
2022/12/29 06:19:43;;;;;;;6.15;1.17;;;;;;;;;;4999292;28;20049;-93
2022/12/29 06:22:11;;;;;;;19.75;1.90;;;;;;;;;;5004811;28;20043;-92
2022/12/29 06:24:37;;;;;;;14.52;1.40;;;;;;;;;;5019346;28;20017;-94
2022/12/29 06:27:02;;;;;;;5.43;1.15;;;;;;;;;;5006608;28;20332;-94
2022/12/29 06:29:28;;;;;;;6.05;0.90;;;;;;;;;;5001370;28;20029;-93
2022/12/29 06:31:57;;;;;;;4.82;1.02;;;;;;;;;;5020001;28;20018;-93
2022/12/29 06:34:23;;;;;;;6.72;1.10;;;;;;;;;;5018545;28;20053;-93
2022/12/29 06:36:48;;;;;;;6.97;1.17;;;;;;;;;;5023965;28;20495;-94
2022/12/29 06:39:14;;;;;;;5.82;0.90;;;;;;;;;;5023148;28;20033;-93
2022/12/29 06:41:39;;;;;;;5.70;1.02;;;;;;;;;;5004444;28;20362;-91
2022/12/29 06:44:04;;;;;;;4.18;0.73;;;;;;;;;;5021499;28;20026;-92
2022/12/29 06:46:30;;;;;;;5.30;0.98;;;;;;;;;;5008028;28;20759;-91
2022/12/29 06:48:55;;;;;;;4.43;0.63;;;;;;;;;;5021929;28;20021;-92
2022/12/29 06:51:20;;;;;;;9.18;1.20;;;;;;;;;;5029445;28;20017;-93
2022/12/29 06:53:46;;;;;;;5.05;0.70;;;;;;;;;;5005615;28;20060;-93
2022/12/29 06:56:12;;;;;;;4.38;1.00;;;;;;;;;;5014248;28;20041;-93
2022/12/29 06:58:37;;;;;;;6.82;0.70;;;;;;;;;;5000224;28;20025;-93
2022/12/29 07:01:03;;;;;;;5.15;0.90;;;;;;;;;;5019281;28;20457;-93
2022/12/29 07:03:28;;;;;;;2.95;0.57;;;;;;;;;;5023830;28;20699;-94
2022/12/29 07:05:54;;;;;;;5.65;0.80;;;;;;;;;;5026020;28;20025;-93
2022/12/29 07:08:20;;;;;;;5.72;1.02;;;;;;;;;;5013809;28;20032;-92
2022/12/29 07:10:45;;;;;;;6.78;0.95;;;;;;;;;;5015561;28;20025;-92
2022/12/29 07:13:11;;;;;;;5.05;0.80;;;;;;;;;;5011815;28;20766;-93
2022/12/29 07:15:37;;;;;;;7.05;0.90;;;;;;;;;;5020734;28;20038;-93
2022/12/29 07:18:03;;;;;;;5.65;0.70;;;;;;;;;;5019978;28;20010;-92
2022/12/29 07:20:31;;;;;;;3.60;0.90;;;;;;;;;;5034463;28;20064;-93
2022/12/29 07:22:57;;;;;;;7.13;1.17;;;;;;;;;;5019317;28;20055;-96
2022/12/29 07:25:22;;;;;;;4.82;1.05;;;;;;;;;;5009950;28;20017;-95
2022/12/29 07:27:48;;;;;;;6.30;0.80;;;;;;;;;;5013018;28;20052;-96
2022/12/29 07:30:14;;;;;;;7.18;1.00;;;;;;;;;;5002731;28;20366;-95
2022/12/29 07:32:39;;;;;;;5.93;0.80;;;;;;;;;;5000213;28;20026;-94
2022/12/29 07:35:05;;;;;;;7.63;1.10;;;;;;;;;;5005324;28;20022;-95
2022/12/29 07:37:30;;;;;;;6.97;0.98;;;;;;;;;;5022857;28;20018;-94
2022/12/29 07:39:56;;;;;;;5.50;1.00;;;;;;;;;;5003549;28;20680;-94
2022/12/29 07:42:21;;;;;;;6.75;1.05;;;;;;;;;;4996967;28;20489;-96
2022/12/29 07:44:46;;;;;;;6.72;1.00;;;;;;;;;;5004439;28;20030;-95
2022/12/29 07:47:12;;;;;;;4.95;0.88;;;;;;;;;;5001634;28;20017;-95
2022/12/29 07:49:38;;;;;;;9.63;1.52;;;;;;;;;;5004400;28;20476;-94
2022/12/29 07:52:03;;;;;;;5.50;1.10;;;;;;;;;;5020883;28;20018;-94
2022/12/29 07:54:28;;;;;;;6.93;0.90;;;;;;;;;;5014065;28;20021;-95
2022/12/29 07:56:54;;;;;;;6.75;1.20;;;;;;;;;;5022037;28;20436;-95
2022/12/29 07:59:20;;;;;;;2.58;0.60;;;;;;;;;;5030881;28;20036;-95
2022/12/29 08:01:45;;;;;;;7.18;1.20;;;;;;;;;;5027942;28;20033;-96
2022/12/29 08:04:11;;;;;;;5.28;1.10;;;;;;;;;;5030345;28;20929;-96
2022/12/29 08:06:39;;;;;;;8.60;1.30;;;;;;;;;;5025990;28;20089;-96
2022/12/29 08:09:04;;;;;;;5.45;1.05;;;;;;;;;;5015237;28;20022;-96
2022/12/29 08:11:30;;;;;;;6.18;0.73;;;;;;;;;;5022760;28;20021;-96
2022/12/29 08:13:55;;;;;;;5.40;0.93;;;;;;;;;;5019422;28;20052;-94
2022/12/29 08:16:21;;;;;;;6.18;0.95;;;;;;;;;;5018946;28;20026;-96
2022/12/29 08:18:46;;;;;;;4.45;1.00;;;;;;;;;;5027569;28;20036;-95
2022/12/29 08:21:12;;;;;;;6.55;1.20;;;;;;;;;;5030940;28;20029;-95
2022/12/29 08:23:37;;;;;;;6.82;1.00;;;;;;;;;;5037593;28;20026;-96
2022/12/29 08:26:04;;;;;;;4.45;0.63;;;;;;;;;;5020705;28;20393;-95
2022/12/29 08:28:30;;;;;;;5.35;0.80;;;;;;;;;;5022069;28;20025;-94
2022/12/29 08:31:00;;;;;;;8.13;0.90;;;;;;;;;;5010598;28;20044;-95
2022/12/29 08:33:25;;;;;;;2.67;0.50;;;;;;;;;;5021350;28;20028;-95
2022/12/29 08:35:51;;;;;;;6.07;0.95;;;;;;;;;;5020655;28;20108;-96
2022/12/29 08:38:17;;;;;;;6.85;1.10;;;;;;;;;;5012627;28;20026;-95
2022/12/29 08:40:43;;;;;;;4.38;0.90;;;;;;;;;;5006723;28;20026;-95
2022/12/29 08:43:08;;;;;;;2.83;0.55;;;;;;;;;;5002684;28;20438;-95
2022/12/29 08:45:33;;;;;;;7.95;1.13;;;;;;;;;;5007075;28;20040;-96
2022/12/29 08:47:58;;;;;;;6.13;0.73;;;;;;;;;;5003338;28;20097;-96
2022/12/29 08:50:24;;;;;;;5.53;0.90;;;;;;;;;;5012339;28;20026;-96
2022/12/29 08:52:50;;;;;;;4.78;0.80;;;;;;;;;;5010132;28;20026;-95
2022/12/29 08:55:18;;;;;;;4.65;1.17;;;;;;;;;;5015078;28;20037;-95
2022/12/29 08:58:05;;;;;;;5.55;0.90;;;;;;;;;;5015068;28;20033;-96
2022/12/29 09:00:31;;;;;;;6.47;1.05;;;;;;;;;;5007880;28;20825;-95
2022/12/29 09:02:56;;;;;;;4.78;0.88;;;;;;;;;;5001830;28;20132;-94
2022/12/29 09:05:21;;;;;;;6.57;0.77;;;;;;;;;;5010364;28;20038;-94
2022/12/29 09:07:55;;;;;;;7.97;1.05;;;;;;;;;;5004254;28;20350;-93
2022/12/29 09:10:21;;;;;;;5.55;0.77;;;;;;;;;;5023372;28;20040;-93
2022/12/29 09:12:48;;;;;;;7.43;1.10;;;;;;;;;;5007864;28;20026;-93
2022/12/29 09:15:15;;;;;;;5.60;0.52;;;;;;;;;;5017096;28;20101;-92
2022/12/29 09:17:40;;;;;;;5.95;1.20;;;;;;;;;;5004971;28;20026;-91
2022/12/29 09:20:06;;;;;;;8.32;2.10;;;;;;;;;;5021887;28;20037;-93
2022/12/29 09:22:31;;;;;;;5.18;0.85;;;;;;;;;;5001685;28;20045;-91
2022/12/29 09:24:56;;;;;;;5.13;0.70;;;;;;;;;;5002709;28;20037;-92
2022/12/29 09:27:22;;;;;;;5.10;1.00;;;;;;;;;;5017036;28;20033;-90
2022/12/29 09:29:47;;;;;;;6.05;0.88;;;;;;;;;;5024330;28;20592;-92
2022/12/29 09:32:12;;;;;;;4.80;0.88;;;;;;;;;;5002153;28;20048;-92
2022/12/29 09:35:09;;;;;;;5.53;0.95;;;;;;;;;;5031547;28;20021;-96
2022/12/29 09:38:09;;;;;;;7.22;1.05;;;;;;;;;;4993953;28;20040;-96
2022/12/29 09:40:59;;;;;;;;;;;;;;;;;;;;;
2022/12/29 09:46:51;;;;;;;14.10;1.23;;;;;;;;;;5033881;28;20025;-92
2022/12/29 09:49:24;;;;;;;5.60;1.20;;;;;;;;;;5006442;28;20407;-93
2022/12/29 09:51:49;;;;;;;;;;;;;;;;;;5003793;28;21629;-93
2022/12/29 09:54:14;;;;;;;8.98;1.40;;;;;;;;;;5018491;28;19921;-93
2022/12/29 09:56:42;;;;;;;12.15;2.05;;;;;;;;;;5026510;28;20430;-92
2022/12/29 09:59:15;;;;;;;10.25;1.25;;;;;;;;;;5009676;28;20405;-94
2022/12/29 10:14:35;;;;;;;7.07;1.17;;;;;;;;;;5044969;23;20063;-93
2022/12/29 10:17:09;;;;;;;8.57;1.30;;;;;;;;;;5014421;28;20053;-94
2022/12/29 10:19:47;;;;;;;7.35;1.30;;;;;;;;;;5013648;28;20549;-94
2022/12/29 10:22:21;;;;;;;7.30;1.20;;;;;;;;;;5015484;28;20036;-94
2022/12/29 10:24:48;;;;;;;16.70;2.65;;;;;;;;;;5016651;28;20100;-95
2022/12/29 10:27:15;;;;;;;11.52;1.73;;;;;;;;;;5015838;28;20083;-92
2022/12/29 10:29:45;;;;;;;9.68;1.35;;;;;;;;;;5019375;28;20030;-93
2022/12/29 10:32:31;;;;;;;9.15;1.80;;;;;;;;;;5049481;28;20049;-94
2022/12/29 10:35:06;;;;;;;7.97;1.10;;;;;;;;;;5032415;28;20109;-95
2022/12/29 10:37:35;;;;;;;9.43;1.27;;;;;;;;;;5015152;28;20086;-93
2022/12/29 10:40:02;;;;;;;7.35;1.20;;;;;;;;;;5012791;28;20018;-93
2022/12/29 10:42:41;;;;;;;6.90;1.08;;;;;;;;;;5028361;28;20095;-95
2022/12/29 10:45:13;;;;;;;8.95;1.70;;;;;;;;;;5022921;28;20032;-94
2022/12/29 10:47:47;;;;;;;7.78;1.42;;;;;;;;;;5035711;28;20036;-95
2022/12/29 10:50:15;;;;;;;9.90;1.38;;;;;;;;;;5004963;28;20034;-95
2022/12/29 10:52:41;;;;;;;10.27;1.80;;;;;;;;;;5024591;28;20013;-93
2022/12/29 10:55:06;;;;;;;13.65;2.05;;;;;;;;;;5026040;28;20039;-92
2022/12/29 10:57:37;;;;;;;10.77;1.80;;;;;;;;;;5011859;28;20075;-93
2022/12/29 11:00:10;;;;;;;16.00;4.40;;;;;;;;;;5005342;28;20044;-93
2022/12/29 11:02:35;;;;;;;41.05;16.10;;;;;;;;;;5006068;28;20026;-94
2022/12/29 11:05:34;;;;;;;71.15;27.27;;;;;;;;;;5006321;28;20059;-95
2022/12/29 11:08:01;;;;;;;99.80;44.40;;;;;;;;;;4952064;28;20055;-91
2022/12/29 11:10:32;;;;;;;23.60;9.40;;;;;;;;;;5002691;28;20048;-93
2022/12/29 11:12:59;;;;;;;17.05;3.70;;;;;;;;;;5017702;28;20045;-92
2022/12/29 11:15:25;;;;;;;44.45;19.48;;;;;;;;;;5005258;28;20036;-93
2022/12/29 11:17:50;;;;;;;34.28;13.35;;;;;;;;;;5004232;28;20037;-90
2022/12/29 11:20:39;;;;;;;22.70;7.00;;;;;;;;;;5005919;28;20030;-94
2022/12/29 11:23:16;;;;;;;30.60;11.77;;;;;;;;;;4992429;28;20049;-93
2022/12/29 11:25:42;;;;;;;22.45;7.47;;;;;;;;;;5007183;28;20087;-94
2022/12/29 11:28:15;;;;;;;30.17;11.95;;;;;;;;;;5008084;28;20021;-93
2022/12/29 11:30:40;;;;;;;33.40;14.25;;;;;;;;;;5000605;28;20118;-94
2022/12/29 11:33:06;;;;;;;45.38;20.05;;;;;;;;;;5005998;28;20502;-93
2022/12/29 11:35:37;;;;;;;30.73;11.45;;;;;;;;;;5004919;28;20028;-94
2022/12/29 11:38:03;;;;;;;28.40;11.23;;;;;;;;;;5007890;28;20332;-92
2022/12/29 11:40:28;;;;;;;20.35;7.32;;;;;;;;;;5004378;28;20038;-94
2022/12/29 11:42:55;;;;;;;12.07;2.30;;;;;;;;;;5005272;28;20029;-93
2022/12/29 11:45:25;;;;;;;9.40;1.63;;;;;;;;;;5005958;28;20033;-93
2022/12/29 11:47:53;;;;;;;17.17;6.15;;;;;;;;;;5004706;28;20040;-93
2022/12/29 11:50:23;;;;;;;9.10;2.05;;;;;;;;;;5005056;28;20481;-93
2022/12/29 11:52:50;;;;;;;21.70;6.82;;;;;;;;;;5005528;28;20036;-93
2022/12/29 11:55:24;;;;;;;22.50;6.15;;;;;;;;;;5003159;28;20025;-93
2022/12/29 11:57:50;;;;;;;15.80;4.15;;;;;;;;;;5022137;28;20540;-93
2022/12/29 12:00:20;;;;;;;16.38;3.05;;;;;;;;;;5007321;28;20044;-94
2022/12/29 12:02:48;;;;;;;11.55;3.20;;;;;;;;;;5006321;28;20030;-94
2022/12/29 12:05:19;;;;;;;10.15;2.00;;;;;;;;;;5025015;28;20060;-94
2022/12/29 12:07:52;;;;;;;7.80;1.20;;;;;;;;;;5008889;28;20439;-94
2022/12/29 12:10:17;;;;;;;12.32;2.05;;;;;;;;;;5005531;28;20032;-94
2022/12/29 12:12:46;;;;;;;13.05;1.90;;;;;;;;;;5017843;28;20042;-92
2022/12/29 12:15:18;;;;;;;12.10;2.20;;;;;;;;;;4999177;28;20025;-94
2022/12/29 12:17:56;;;;;;;11.65;2.30;;;;;;;;;;5026761;28;20025;-94
2022/12/29 12:20:25;;;;;;;12.48;2.42;;;;;;;;;;5003095;28;20053;-94
2022/12/29 12:23:08;;;;;;;12.23;2.30;;;;;;;;;;5011636;28;20033;-93
2022/12/29 12:25:42;;;;;;;13.80;2.97;;;;;;;;;;5022229;28;20096;-93
2022/12/29 12:28:17;;;;;;;15.40;2.05;;;;;;;;;;5026385;28;20107;-94
2022/12/29 12:30:47;;;;;;;15.35;1.90;;;;;;;;;;5024794;28;20044;-93
2022/12/29 12:33:13;;;;;;;11.70;1.98;;;;;;;;;;5001053;28;20591;-94
2022/12/29 12:35:43;;;;;;;15.63;2.10;;;;;;;;;;5021153;28;20128;-92
2022/12/29 12:38:17;;;;;;;14.77;2.42;;;;;;;;;;5006038;28;20021;-93
2022/12/29 12:40:43;;;;;;;13.38;2.28;;;;;;;;;;5008287;28;20440;-93
2022/12/29 12:43:27;;;;;;;24.23;9.82;;;;;;;;;;5000535;28;20021;-93
2022/12/29 12:46:01;;;;;;;21.02;5.25;;;;;;;;;;5024806;28;20144;-94
2022/12/29 12:48:30;;;;;;;15.95;4.43;;;;;;;;;;5001551;28;20032;-93
2022/12/29 12:51:01;;;;;;;24.17;10.25;;;;;;;;;;5010985;28;20056;-94
2022/12/29 12:53:46;;;;;;;10.00;2.78;;;;;;;;;;5012301;28;20040;-93
2022/12/29 12:56:20;;;;;;;14.32;3.40;;;;;;;;;;5033571;28;20024;-94
2022/12/29 12:58:52;;;;;;;13.75;3.45;;;;;;;;;;5016400;28;20056;-95
2022/12/29 13:01:17;;;;;;;10.60;2.35;;;;;;;;;;5031166;28;20083;-94
2022/12/29 13:04:01;;;;;;;13.85;3.42;;;;;;;;;;5025742;28;20021;-96
2022/12/29 13:06:34;;;;;;;17.20;3.80;;;;;;;;;;5028290;28;20104;-95
2022/12/29 13:09:00;;;;;;;;;;;;;;;;;;5026306;28;20025;-95
2022/12/29 13:11:45;;;;;;;24.00;7.90;;;;;;;;;;5008291;28;20369;-94
2022/12/29 13:14:23;;;;;;;11.90;2.35;;;;;;;;;;5006506;28;20050;-96
2022/12/29 13:16:55;;;;;;;12.98;2.10;;;;;;;;;;5001708;28;20535;-93
2022/12/29 13:19:24;;;;;;;11.05;2.22;;;;;;;;;;5002296;28;20029;-94
2022/12/29 13:21:50;;;;;;;12.73;2.10;;;;;;;;;;5004603;28;20472;-95
2022/12/29 13:24:20;;;;;;;13.50;2.53;;;;;;;;;;5002780;28;20536;-95
2022/12/29 13:26:45;;;;;;;14.02;2.90;;;;;;;;;;5007038;28;20084;-93
2022/12/29 13:29:29;;;;;;;11.75;2.10;;;;;;;;;;5007323;28;20026;-95
2022/12/29 13:32:07;;;;;;;16.77;2.38;;;;;;;;;;5004742;28;20075;-94
2022/12/29 13:34:51;;;;;;;10.70;2.03;;;;;;;;;;5011377;28;20026;-94
2022/12/29 13:37:18;;;;;;;11.98;2.45;;;;;;;;;;5007435;28;20049;-93
2022/12/29 13:40:12;;;;;;;11.20;2.70;;;;;;;;;;5006863;28;20172;-95
2022/12/29 13:42:37;;;;;;;10.20;1.98;;;;;;;;;;4998378;28;20128;-94
2022/12/29 13:45:13;;;;;;;9.65;2.00;;;;;;;;;;5024099;28;20097;-94
2022/12/29 13:47:41;;;;;;;14.43;1.95;;;;;;;;;;5006853;28;20033;-95
2022/12/29 13:50:12;;;;;;;12.45;2.88;;;;;;;;;;5006119;28;20061;-93
2022/12/29 13:52:38;;;;;;;12.52;2.78;;;;;;;;;;5010900;28;20021;-94
2022/12/29 13:55:17;;;;;;;14.65;2.80;;;;;;;;;;5011211;28;20040;-95
2022/12/29 13:57:48;;;;;;;13.70;3.22;;;;;;;;;;5005206;28;20021;-92
2022/12/29 14:00:25;;;;;;;10.18;1.77;;;;;;;;;;5001629;28;20134;-96
2022/12/29 14:02:51;;;;;;;13.68;1.83;;;;;;;;;;5007702;28;20029;-95
2022/12/29 14:05:22;;;;;;;12.80;2.20;;;;;;;;;;5006259;28;20922;-95
2022/12/29 14:08:01;;;;;;;11.73;2.05;;;;;;;;;;5003673;28;20103;-94
2022/12/29 14:10:35;;;;;;;10.80;1.88;;;;;;;;;;5003139;28;20029;-95
2022/12/29 14:13:00;;;;;;;;;;;;;;;;;;5009141;28;20041;-94
2022/12/29 14:15:25;;;;;;;11.17;1.93;;;;;;;;;;5028359;28;20004;-93
2022/12/29 14:18:05;;;;;;;9.93;1.77;;;;;;;;;;5006587;28;20102;-95
2022/12/29 14:20:31;;;;;;;8.43;1.48;;;;;;;;;;5007710;28;20033;-94
2022/12/29 14:22:58;;;;;;;8.43;1.30;;;;;;;;;;5006291;28;20103;-95
2022/12/29 14:25:43;;;;;;;9.20;1.30;;;;;;;;;;5009293;28;20370;-94
2022/12/29 14:28:16;;;;;;;7.78;1.50;;;;;;;;;;5026814;28;20055;-94
2022/12/29 14:30:49;;;;;;;10.23;1.47;;;;;;;;;;5024950;28;20051;-94
2022/12/29 14:33:14;;;;;;;13.55;1.80;;;;;;;;;;5001483;28;20104;-94
2022/12/29 14:35:41;;;;;;;10.43;1.83;;;;;;;;;;5008427;28;20116;-95
2022/12/29 14:38:15;;;;;;;11.90;1.63;;;;;;;;;;5007434;28;20022;-94
2022/12/29 14:43:59;;;;;;;10.50;1.48;;;;;;;;;;5023933;28;20511;-95
2022/12/29 14:46:40;;;;;;;7.68;1.48;;;;;;;;;;5010392;28;20830;-94
2022/12/29 14:49:18;;;;;;;10.23;1.60;;;;;;;;;;5026329;28;20087;-94
2022/12/29 14:51:43;;;;;;;11.45;1.42;;;;;;;;;;5015908;28;20022;-93
2022/12/29 14:54:38;;;;;;;10.60;1.58;;;;;;;;;;5012209;28;20018;-94
2022/12/29 14:57:09;;;;;;;9.52;1.40;;;;;;;;;;4933875;29;20530;-93
2022/12/29 14:59:35;;;;;;;10.18;1.60;;;;;;;;;;4932866;29;20071;-93
2022/12/29 15:02:14;;;;;;;9.57;1.60;;;;;;;;;;4950758;28;20084;-94
2022/12/29 15:04:40;;;;;;;11.27;1.63;;;;;;;;;;4935223;29;20034;-93
2022/12/29 15:07:08;;;;;;;8.95;1.33;;;;;;;;;;4926501;29;20435;-95
2022/12/29 15:09:54;;;;;;;7.40;1.30;;;;;;;;;;4929301;28;20090;-96
2022/12/29 15:12:35;;;;;;;10.68;1.35;;;;;;;;;;4943569;28;20110;-94
2022/12/29 15:15:02;;;;;;;9.20;1.65;;;;;;;;;;4947371;28;20116;-95
2022/12/29 15:17:27;;;;;;;14.20;2.10;;;;;;;;;;4929632;29;20031;-95
2022/12/29 15:19:53;;;;;;;6.32;1.13;;;;;;;;;;4936371;29;20086;-95
2022/12/29 15:22:19;;;;;;;7.45;1.40;;;;;;;;;;4948308;28;20035;-96
2022/12/29 15:24:55;;;;;;;6.60;1.17;;;;;;;;;;4930362;29;20158;-94
2022/12/29 15:27:22;;;;;;;11.60;1.35;;;;;;;;;;4931757;29;20070;-95
2022/12/29 15:29:47;;;;;;;8.45;1.08;;;;;;;;;;4950577;29;20042;-96
2022/12/29 15:32:15;;;;;;;10.43;1.50;;;;;;;;;;4927031;29;20552;-95
2022/12/29 15:34:42;;;;;;;6.97;1.23;;;;;;;;;;5007815;28;20128;-95
2022/12/29 15:37:08;;;;;;;6.45;1.10;;;;;;;;;;5022776;28;20111;-93
2022/12/29 15:39:33;;;;;;;7.85;1.17;;;;;;;;;;5007323;28;20488;-94
2022/12/29 15:42:16;;;;;;;10.55;1.58;;;;;;;;;;5026176;28;20544;-94
2022/12/29 15:44:44;;;;;;;11.83;1.53;;;;;;;;;;5011198;28;20036;-94
2022/12/29 15:47:12;;;;;;;10.27;1.33;;;;;;;;;;5012416;28;20036;-95